sensor_id;sensor_type;location;lat;lon;timestamp;P1;durP1;ratioP1;P2;durP2;ratioP2
982;SDS011;480;48.124;11.578;2023-06-22T00:02:04;5.47;;;3.40;;
982;SDS011;480;48.124;11.578;2023-06-22T00:04:32;5.40;;;3.57;;
982;SDS011;480;48.124;11.578;2023-06-22T00:06:59;6.30;;;3.90;;
982;SDS011;480;48.124;11.578;2023-06-22T00:09:26;4.70;;;3.33;;
982;SDS011;480;48.124;11.578;2023-06-22T00:11:53;6.60;;;3.50;;
982;SDS011;480;48.124;11.578;2023-06-22T00:14:20;6.40;;;3.70;;
982;SDS011;480;48.124;11.578;2023-06-22T00:16:48;5.97;;;2.80;;
982;SDS011;480;48.124;11.578;2023-06-22T00:19:20;6.00;;;4.03;;
982;SDS011;480;48.124;11.578;2023-06-22T00:21:47;6.60;;;4.00;;
982;SDS011;480;48.124;11.578;2023-06-22T00:24:17;5.57;;;3.40;;
982;SDS011;480;48.124;11.578;2023-06-22T00:26:44;6.70;;;3.40;;
982;SDS011;480;48.124;11.578;2023-06-22T00:29:12;8.10;;;4.40;;
982;SDS011;480;48.124;11.578;2023-06-22T00:31:39;3.63;;;3.20;;
982;SDS011;480;48.124;11.578;2023-06-22T00:34:08;5.97;;;4.50;;
982;SDS011;480;48.124;11.578;2023-06-22T00:36:35;5.40;;;3.60;;
982;SDS011;480;48.124;11.578;2023-06-22T00:39:02;6.00;;;4.93;;
982;SDS011;480;48.124;11.578;2023-06-22T00:41:30;4.13;;;2.90;;
982;SDS011;480;48.124;11.578;2023-06-22T00:43:57;5.07;;;3.97;;
982;SDS011;480;48.124;11.578;2023-06-22T00:46:24;4.70;;;3.30;;
982;SDS011;480;48.124;11.578;2023-06-22T00:48:51;6.80;;;3.20;;
982;SDS011;480;48.124;11.578;2023-06-22T00:51:23;4.23;;;3.70;;
982;SDS011;480;48.124;11.578;2023-06-22T00:53:51;6.67;;;3.90;;
982;SDS011;480;48.124;11.578;2023-06-22T00:56:19;5.20;;;3.33;;
982;SDS011;480;48.124;11.578;2023-06-22T00:58:49;4.17;;;3.60;;
982;SDS011;480;48.124;11.578;2023-06-22T01:01:19;5.80;;;3.57;;
982;SDS011;480;48.124;11.578;2023-06-22T01:03:49;4.90;;;3.70;;
982;SDS011;480;48.124;11.578;2023-06-22T01:06:18;5.90;;;3.10;;
982;SDS011;480;48.124;11.578;2023-06-22T01:08:53;6.30;;;3.87;;
982;SDS011;480;48.124;11.578;2023-06-22T01:11:31;5.47;;;4.13;;
982;SDS011;480;48.124;11.578;2023-06-22T01:14:05;6.07;;;3.87;;
982;SDS011;480;48.124;11.578;2023-06-22T01:16:36;10.23;;;4.17;;
982;SDS011;480;48.124;11.578;2023-06-22T01:19:09;5.57;;;3.83;;
982;SDS011;480;48.124;11.578;2023-06-22T01:21:46;4.90;;;3.40;;
982;SDS011;480;48.124;11.578;2023-06-22T01:24:22;6.60;;;4.37;;
982;SDS011;480;48.124;11.578;2023-06-22T01:26:54;5.53;;;3.37;;
982;SDS011;480;48.124;11.578;2023-06-22T01:29:32;8.53;;;3.63;;
982;SDS011;480;48.124;11.578;2023-06-22T01:32:01;4.60;;;3.63;;
982;SDS011;480;48.124;11.578;2023-06-22T01:34:31;6.63;;;4.50;;
982;SDS011;480;48.124;11.578;2023-06-22T01:36:59;6.50;;;4.40;;
982;SDS011;480;48.124;11.578;2023-06-22T01:39:28;5.13;;;4.33;;
982;SDS011;480;48.124;11.578;2023-06-22T01:41:56;4.77;;;3.43;;
982;SDS011;480;48.124;11.578;2023-06-22T01:44:24;3.87;;;3.50;;
982;SDS011;480;48.124;11.578;2023-06-22T01:46:54;8.53;;;3.60;;
982;SDS011;480;48.124;11.578;2023-06-22T01:49:22;4.00;;;3.47;;
982;SDS011;480;48.124;11.578;2023-06-22T01:51:49;7.10;;;4.23;;
982;SDS011;480;48.124;11.578;2023-06-22T01:54:16;5.63;;;4.83;;
982;SDS011;480;48.124;11.578;2023-06-22T01:56:43;5.77;;;3.50;;
982;SDS011;480;48.124;11.578;2023-06-22T01:59:13;5.73;;;3.50;;
982;SDS011;480;48.124;11.578;2023-06-22T02:04:32;4.30;;;3.57;;
982;SDS011;480;48.124;11.578;2023-06-22T02:07:05;7.77;;;3.93;;
982;SDS011;480;48.124;11.578;2023-06-22T02:09:38;4.43;;;4.03;;
982;SDS011;480;48.124;11.578;2023-06-22T02:12:10;4.73;;;3.13;;
982;SDS011;480;48.124;11.578;2023-06-22T02:14:39;3.93;;;3.60;;
982;SDS011;480;48.124;11.578;2023-06-22T02:17:09;6.80;;;4.30;;
982;SDS011;480;48.124;11.578;2023-06-22T02:19:36;7.13;;;4.83;;
982;SDS011;480;48.124;11.578;2023-06-22T02:22:04;7.20;;;4.37;;
982;SDS011;480;48.124;11.578;2023-06-22T02:24:31;5.80;;;3.90;;
982;SDS011;480;48.124;11.578;2023-06-22T02:26:58;5.90;;;5.30;;
982;SDS011;480;48.124;11.578;2023-06-22T02:29:26;8.03;;;4.53;;
982;SDS011;480;48.124;11.578;2023-06-22T02:31:53;7.20;;;4.00;;
982;SDS011;480;48.124;11.578;2023-06-22T02:34:22;9.13;;;4.37;;
982;SDS011;480;48.124;11.578;2023-06-22T02:36:49;5.40;;;4.40;;
982;SDS011;480;48.124;11.578;2023-06-22T02:39:18;7.47;;;4.03;;
982;SDS011;480;48.124;11.578;2023-06-22T02:41:47;5.90;;;4.13;;
982;SDS011;480;48.124;11.578;2023-06-22T02:44:14;4.07;;;3.60;;
982;SDS011;480;48.124;11.578;2023-06-22T02:46:41;6.00;;;4.40;;
982;SDS011;480;48.124;11.578;2023-06-22T02:49:09;7.03;;;4.90;;
982;SDS011;480;48.124;11.578;2023-06-22T02:51:38;6.20;;;5.60;;
982;SDS011;480;48.124;11.578;2023-06-22T02:54:05;4.30;;;3.40;;
982;SDS011;480;48.124;11.578;2023-06-22T02:56:32;4.50;;;3.83;;
982;SDS011;480;48.124;11.578;2023-06-22T02:59:01;5.10;;;4.33;;
982;SDS011;480;48.124;11.578;2023-06-22T03:01:28;5.03;;;3.90;;
982;SDS011;480;48.124;11.578;2023-06-22T03:04:02;9.23;;;4.80;;
982;SDS011;480;48.124;11.578;2023-06-22T03:06:30;4.23;;;3.57;;
982;SDS011;480;48.124;11.578;2023-06-22T03:08:59;5.30;;;4.30;;
982;SDS011;480;48.124;11.578;2023-06-22T03:11:26;5.57;;;4.57;;
982;SDS011;480;48.124;11.578;2023-06-22T03:13:53;6.93;;;4.50;;
982;SDS011;480;48.124;11.578;2023-06-22T03:16:20;5.10;;;3.90;;
982;SDS011;480;48.124;11.578;2023-06-22T03:18:47;9.10;;;4.57;;
982;SDS011;480;48.124;11.578;2023-06-22T03:21:14;8.00;;;4.83;;
982;SDS011;480;48.124;11.578;2023-06-22T03:23:42;6.73;;;3.83;;
982;SDS011;480;48.124;11.578;2023-06-22T03:26:10;4.90;;;4.30;;
982;SDS011;480;48.124;11.578;2023-06-22T03:28:38;5.07;;;4.30;;
982;SDS011;480;48.124;11.578;2023-06-22T03:31:05;7.33;;;4.60;;
982;SDS011;480;48.124;11.578;2023-06-22T03:33:32;7.20;;;4.87;;
982;SDS011;480;48.124;11.578;2023-06-22T03:35:59;6.07;;;4.53;;
982;SDS011;480;48.124;11.578;2023-06-22T03:38:26;8.83;;;5.80;;
982;SDS011;480;48.124;11.578;2023-06-22T03:40:54;6.73;;;5.20;;
982;SDS011;480;48.124;11.578;2023-06-22T03:43:23;6.00;;;4.60;;
982;SDS011;480;48.124;11.578;2023-06-22T03:45:50;5.83;;;5.23;;
982;SDS011;480;48.124;11.578;2023-06-22T03:48:17;9.10;;;5.20;;
982;SDS011;480;48.124;11.578;2023-06-22T03:50:44;6.50;;;4.83;;
982;SDS011;480;48.124;11.578;2023-06-22T03:53:11;5.40;;;4.37;;
982;SDS011;480;48.124;11.578;2023-06-22T03:55:40;5.60;;;4.40;;
982;SDS011;480;48.124;11.578;2023-06-22T03:58:13;8.27;;;5.77;;
982;SDS011;480;48.124;11.578;2023-06-22T04:00:42;6.57;;;4.70;;
982;SDS011;480;48.124;11.578;2023-06-22T04:03:09;6.73;;;4.87;;
982;SDS011;480;48.124;11.578;2023-06-22T04:05:37;11.03;;;5.00;;
982;SDS011;480;48.124;11.578;2023-06-22T04:08:04;6.37;;;4.50;;
982;SDS011;480;48.124;11.578;2023-06-22T04:10:31;8.63;;;6.20;;
982;SDS011;480;48.124;11.578;2023-06-22T04:12:59;8.50;;;6.03;;
982;SDS011;480;48.124;11.578;2023-06-22T04:15:26;6.40;;;4.90;;
982;SDS011;480;48.124;11.578;2023-06-22T04:17:54;8.97;;;5.40;;
982;SDS011;480;48.124;11.578;2023-06-22T04:20:22;8.20;;;5.77;;
982;SDS011;480;48.124;11.578;2023-06-22T04:22:50;5.90;;;4.90;;
982;SDS011;480;48.124;11.578;2023-06-22T04:25:17;6.33;;;4.57;;
982;SDS011;480;48.124;11.578;2023-06-22T04:27:45;11.40;;;5.17;;
982;SDS011;480;48.124;11.578;2023-06-22T04:30:12;5.23;;;4.70;;
982;SDS011;480;48.124;11.578;2023-06-22T04:32:40;8.43;;;4.93;;
982;SDS011;480;48.124;11.578;2023-06-22T04:35:08;5.90;;;5.27;;
982;SDS011;480;48.124;11.578;2023-06-22T04:37:35;19.20;;;5.83;;
982;SDS011;480;48.124;11.578;2023-06-22T04:40:03;6.83;;;5.47;;
982;SDS011;480;48.124;11.578;2023-06-22T04:42:35;8.30;;;5.30;;
982;SDS011;480;48.124;11.578;2023-06-22T04:45:04;7.47;;;5.50;;
982;SDS011;480;48.124;11.578;2023-06-22T04:47:31;5.60;;;4.80;;
982;SDS011;480;48.124;11.578;2023-06-22T04:49:59;6.67;;;5.97;;
982;SDS011;480;48.124;11.578;2023-06-22T04:52:32;8.90;;;6.60;;
982;SDS011;480;48.124;11.578;2023-06-22T04:54:59;8.20;;;6.47;;
982;SDS011;480;48.124;11.578;2023-06-22T04:57:26;7.93;;;6.60;;
982;SDS011;480;48.124;11.578;2023-06-22T04:59:57;8.03;;;5.50;;
982;SDS011;480;48.124;11.578;2023-06-22T05:02:32;10.00;;;7.27;;
982;SDS011;480;48.124;11.578;2023-06-22T05:04:59;8.80;;;6.90;;
982;SDS011;480;48.124;11.578;2023-06-22T05:07:33;10.03;;;6.27;;
982;SDS011;480;48.124;11.578;2023-06-22T05:10:00;13.07;;;5.73;;
982;SDS011;480;48.124;11.578;2023-06-22T05:12:27;6.83;;;6.23;;
982;SDS011;480;48.124;11.578;2023-06-22T05:14:55;10.87;;;6.97;;
982;SDS011;480;48.124;11.578;2023-06-22T05:17:22;20.50;;;7.93;;
982;SDS011;480;48.124;11.578;2023-06-22T05:19:49;9.30;;;6.83;;
982;SDS011;480;48.124;11.578;2023-06-22T05:22:16;7.23;;;6.30;;
982;SDS011;480;48.124;11.578;2023-06-22T05:24:45;12.37;;;7.40;;
982;SDS011;480;48.124;11.578;2023-06-22T05:27:12;8.30;;;6.97;;
982;SDS011;480;48.124;11.578;2023-06-22T05:29:40;11.23;;;6.63;;
982;SDS011;480;48.124;11.578;2023-06-22T05:32:08;7.70;;;5.90;;
982;SDS011;480;48.124;11.578;2023-06-22T05:34:35;8.60;;;6.23;;
982;SDS011;480;48.124;11.578;2023-06-22T05:37:03;9.53;;;8.47;;
982;SDS011;480;48.124;11.578;2023-06-22T05:39:31;15.13;;;8.30;;
982;SDS011;480;48.124;11.578;2023-06-22T05:41:59;9.90;;;7.50;;
982;SDS011;480;48.124;11.578;2023-06-22T05:44:26;12.20;;;7.63;;
982;SDS011;480;48.124;11.578;2023-06-22T05:46:53;8.90;;;7.87;;
982;SDS011;480;48.124;11.578;2023-06-22T05:49:20;8.50;;;7.70;;
982;SDS011;480;48.124;11.578;2023-06-22T05:51:48;9.33;;;7.70;;
982;SDS011;480;48.124;11.578;2023-06-22T05:54:15;7.63;;;6.23;;
982;SDS011;480;48.124;11.578;2023-06-22T05:56:43;8.40;;;6.50;;
982;SDS011;480;48.124;11.578;2023-06-22T05:59:11;10.70;;;7.43;;
982;SDS011;480;48.124;11.578;2023-06-22T06:01:38;10.47;;;7.50;;
982;SDS011;480;48.124;11.578;2023-06-22T06:04:05;7.63;;;6.93;;
982;SDS011;480;48.124;11.578;2023-06-22T06:06:33;11.23;;;7.93;;
982;SDS011;480;48.124;11.578;2023-06-22T06:09:02;11.63;;;7.00;;
982;SDS011;480;48.124;11.578;2023-06-22T06:11:29;13.03;;;7.57;;
982;SDS011;480;48.124;11.578;2023-06-22T06:13:56;7.23;;;6.40;;
982;SDS011;480;48.124;11.578;2023-06-22T06:16:25;8.80;;;6.87;;
982;SDS011;480;48.124;11.578;2023-06-22T06:18:52;10.77;;;8.67;;
982;SDS011;480;48.124;11.578;2023-06-22T06:21:21;8.33;;;7.30;;
982;SDS011;480;48.124;11.578;2023-06-22T06:23:48;8.23;;;7.30;;
982;SDS011;480;48.124;11.578;2023-06-22T06:26:15;6.53;;;5.90;;
982;SDS011;480;48.124;11.578;2023-06-22T06:28:42;18.43;;;6.80;;
982;SDS011;480;48.124;11.578;2023-06-22T06:31:09;9.97;;;7.10;;
982;SDS011;480;48.124;11.578;2023-06-22T06:33:43;7.47;;;6.60;;
982;SDS011;480;48.124;11.578;2023-06-22T06:36:16;8.90;;;6.97;;
982;SDS011;480;48.124;11.578;2023-06-22T06:38:43;8.10;;;7.20;;
982;SDS011;480;48.124;11.578;2023-06-22T06:41:12;8.47;;;7.17;;
982;SDS011;480;48.124;11.578;2023-06-22T06:43:39;9.90;;;7.93;;
982;SDS011;480;48.124;11.578;2023-06-22T06:46:07;11.07;;;7.60;;
982;SDS011;480;48.124;11.578;2023-06-22T06:48:34;7.80;;;6.83;;
982;SDS011;480;48.124;11.578;2023-06-22T06:51:02;9.20;;;6.53;;
982;SDS011;480;48.124;11.578;2023-06-22T06:53:29;9.63;;;7.00;;
982;SDS011;480;48.124;11.578;2023-06-22T06:55:56;6.67;;;6.10;;
982;SDS011;480;48.124;11.578;2023-06-22T06:58:23;9.73;;;7.90;;
982;SDS011;480;48.124;11.578;2023-06-22T07:00:50;9.00;;;5.67;;
982;SDS011;480;48.124;11.578;2023-06-22T07:03:17;8.50;;;7.10;;
982;SDS011;480;48.124;11.578;2023-06-22T07:05:47;8.53;;;7.37;;
982;SDS011;480;48.124;11.578;2023-06-22T07:08:16;7.63;;;6.97;;
982;SDS011;480;48.124;11.578;2023-06-22T07:10:46;9.60;;;8.13;;
982;SDS011;480;48.124;11.578;2023-06-22T07:13:12;7.60;;;6.50;;
982;SDS011;480;48.124;11.578;2023-06-22T07:15:39;9.00;;;6.90;;
982;SDS011;480;48.124;11.578;2023-06-22T07:18:07;9.80;;;7.57;;
982;SDS011;480;48.124;11.578;2023-06-22T07:20:34;8.57;;;6.70;;
982;SDS011;480;48.124;11.578;2023-06-22T07:23:01;9.53;;;7.70;;
982;SDS011;480;48.124;11.578;2023-06-22T07:25:29;9.90;;;7.70;;
982;SDS011;480;48.124;11.578;2023-06-22T07:27:57;11.50;;;7.47;;
982;SDS011;480;48.124;11.578;2023-06-22T07:30:26;11.07;;;6.57;;
982;SDS011;480;48.124;11.578;2023-06-22T07:32:53;8.30;;;7.30;;
982;SDS011;480;48.124;11.578;2023-06-22T07:35:20;9.67;;;7.43;;
982;SDS011;480;48.124;11.578;2023-06-22T07:37:47;7.03;;;5.87;;
982;SDS011;480;48.124;11.578;2023-06-22T07:40:14;8.17;;;7.10;;
982;SDS011;480;48.124;11.578;2023-06-22T07:42:42;8.20;;;6.27;;
982;SDS011;480;48.124;11.578;2023-06-22T07:45:13;10.03;;;8.17;;
982;SDS011;480;48.124;11.578;2023-06-22T07:47:40;8.77;;;7.30;;
982;SDS011;480;48.124;11.578;2023-06-22T07:50:07;10.63;;;8.10;;
982;SDS011;480;48.124;11.578;2023-06-22T07:52:35;13.80;;;9.87;;
982;SDS011;480;48.124;11.578;2023-06-22T07:55:02;8.93;;;8.07;;
982;SDS011;480;48.124;11.578;2023-06-22T07:57:30;11.30;;;7.67;;
982;SDS011;480;48.124;11.578;2023-06-22T08:00:00;9.63;;;7.87;;
982;SDS011;480;48.124;11.578;2023-06-22T08:02:36;7.50;;;6.73;;
982;SDS011;480;48.124;11.578;2023-06-22T08:05:05;10.90;;;8.03;;
982;SDS011;480;48.124;11.578;2023-06-22T08:07:33;9.17;;;7.47;;
982;SDS011;480;48.124;11.578;2023-06-22T08:10:00;7.60;;;6.80;;
982;SDS011;480;48.124;11.578;2023-06-22T08:12:27;7.20;;;6.50;;
982;SDS011;480;48.124;11.578;2023-06-22T08:14:54;9.47;;;7.23;;
982;SDS011;480;48.124;11.578;2023-06-22T08:17:24;11.27;;;7.53;;
982;SDS011;480;48.124;11.578;2023-06-22T08:19:51;9.70;;;7.13;;
982;SDS011;480;48.124;11.578;2023-06-22T08:22:18;7.93;;;7.10;;
982;SDS011;480;48.124;11.578;2023-06-22T08:24:45;10.50;;;7.23;;
982;SDS011;480;48.124;11.578;2023-06-22T08:27:12;9.53;;;7.60;;
982;SDS011;480;48.124;11.578;2023-06-22T08:29:39;7.73;;;6.97;;
982;SDS011;480;48.124;11.578;2023-06-22T08:32:08;9.80;;;8.90;;
982;SDS011;480;48.124;11.578;2023-06-22T08:34:36;12.43;;;7.30;;
982;SDS011;480;48.124;11.578;2023-06-22T08:37:07;10.87;;;9.77;;
982;SDS011;480;48.124;11.578;2023-06-22T08:39:34;7.60;;;6.93;;
982;SDS011;480;48.124;11.578;2023-06-22T08:42:01;8.80;;;6.67;;
982;SDS011;480;48.124;11.578;2023-06-22T08:44:28;8.50;;;7.60;;
982;SDS011;480;48.124;11.578;2023-06-22T08:46:55;9.33;;;6.80;;
982;SDS011;480;48.124;11.578;2023-06-22T08:49:21;12.20;;;8.27;;
982;SDS011;480;48.124;11.578;2023-06-22T08:51:50;8.30;;;7.60;;
982;SDS011;480;48.124;11.578;2023-06-22T08:54:19;7.53;;;6.70;;
982;SDS011;480;48.124;11.578;2023-06-22T08:56:46;11.30;;;7.40;;
982;SDS011;480;48.124;11.578;2023-06-22T08:59:12;7.70;;;7.00;;
982;SDS011;480;48.124;11.578;2023-06-22T09:01:40;7.90;;;6.90;;
982;SDS011;480;48.124;11.578;2023-06-22T09:04:10;13.50;;;7.10;;
982;SDS011;480;48.124;11.578;2023-06-22T09:06:37;7.53;;;6.70;;
982;SDS011;480;48.124;11.578;2023-06-22T09:09:12;10.20;;;7.77;;
982;SDS011;480;48.124;11.578;2023-06-22T09:11:39;9.03;;;7.33;;
982;SDS011;480;48.124;11.578;2023-06-22T09:14:06;10.93;;;7.10;;
982;SDS011;480;48.124;11.578;2023-06-22T09:16:33;10.83;;;7.30;;
982;SDS011;480;48.124;11.578;2023-06-22T09:19:00;10.10;;;7.93;;
982;SDS011;480;48.124;11.578;2023-06-22T09:21:28;9.23;;;7.00;;
982;SDS011;480;48.124;11.578;2023-06-22T09:23:55;9.37;;;7.33;;
982;SDS011;480;48.124;11.578;2023-06-22T09:26:23;14.70;;;8.60;;
982;SDS011;480;48.124;11.578;2023-06-22T09:28:50;12.47;;;8.10;;
982;SDS011;480;48.124;11.578;2023-06-22T09:31:17;12.13;;;7.90;;
982;SDS011;480;48.124;11.578;2023-06-22T09:33:50;7.87;;;6.90;;
982;SDS011;480;48.124;11.578;2023-06-22T09:36:18;9.13;;;7.07;;
982;SDS011;480;48.124;11.578;2023-06-22T09:38:45;10.60;;;7.77;;
982;SDS011;480;48.124;11.578;2023-06-22T09:41:12;7.30;;;6.60;;
982;SDS011;480;48.124;11.578;2023-06-22T09:43:40;12.07;;;7.50;;
982;SDS011;480;48.124;11.578;2023-06-22T09:46:07;7.90;;;6.67;;
982;SDS011;480;48.124;11.578;2023-06-22T09:48:34;10.03;;;6.40;;
982;SDS011;480;48.124;11.578;2023-06-22T09:51:01;8.30;;;6.90;;
982;SDS011;480;48.124;11.578;2023-06-22T09:53:28;10.50;;;7.43;;
982;SDS011;480;48.124;11.578;2023-06-22T09:55:55;8.53;;;6.27;;
982;SDS011;480;48.124;11.578;2023-06-22T09:58:23;7.40;;;6.23;;
982;SDS011;480;48.124;11.578;2023-06-22T10:00:51;9.40;;;7.70;;
982;SDS011;480;48.124;11.578;2023-06-22T10:03:19;8.97;;;6.47;;
982;SDS011;480;48.124;11.578;2023-06-22T10:05:46;8.43;;;6.60;;
982;SDS011;480;48.124;11.578;2023-06-22T10:08:13;9.77;;;7.00;;
982;SDS011;480;48.124;11.578;2023-06-22T10:10:40;7.37;;;6.23;;
982;SDS011;480;48.124;11.578;2023-06-22T10:13:07;12.67;;;8.30;;
982;SDS011;480;48.124;11.578;2023-06-22T10:15:36;15.40;;;7.40;;
982;SDS011;480;48.124;11.578;2023-06-22T10:18:05;7.47;;;6.77;;
982;SDS011;480;48.124;11.578;2023-06-22T10:20:32;9.17;;;7.07;;
982;SDS011;480;48.124;11.578;2023-06-22T10:22:59;9.57;;;7.20;;
982;SDS011;480;48.124;11.578;2023-06-22T10:25:26;9.73;;;7.80;;
982;SDS011;480;48.124;11.578;2023-06-22T10:27:53;14.73;;;7.20;;
982;SDS011;480;48.124;11.578;2023-06-22T10:30:20;10.87;;;8.40;;
982;SDS011;480;48.124;11.578;2023-06-22T10:32:48;13.80;;;8.00;;
982;SDS011;480;48.124;11.578;2023-06-22T10:35:17;13.27;;;6.47;;
982;SDS011;480;48.124;11.578;2023-06-22T10:37:44;11.00;;;7.60;;
982;SDS011;480;48.124;11.578;2023-06-22T10:40:12;10.47;;;7.00;;
982;SDS011;480;48.124;11.578;2023-06-22T10:42:40;240.23;;;232.40;;
982;SDS011;480;48.124;11.578;2023-06-22T10:45:07;157.50;;;152.40;;
982;SDS011;480;48.124;11.578;2023-06-22T10:47:35;1147.00;;;933.93;;
982;SDS011;480;48.124;11.578;2023-06-22T10:50:02;1999.90;;;999.90;;
982;SDS011;480;48.124;11.578;2023-06-22T10:52:31;1999.90;;;999.90;;
982;SDS011;480;48.124;11.578;2023-06-22T10:54:58;1999.90;;;999.90;;
982;SDS011;480;48.124;11.578;2023-06-22T10:57:25;1999.90;;;999.90;;
982;SDS011;480;48.124;11.578;2023-06-22T10:59:52;1999.90;;;999.90;;
982;SDS011;480;48.124;11.578;2023-06-22T11:02:22;1999.90;;;999.90;;
982;SDS011;480;48.124;11.578;2023-06-22T11:04:50;1999.90;;;999.90;;
982;SDS011;480;48.124;11.578;2023-06-22T11:07:17;1999.90;;;999.90;;
982;SDS011;480;48.124;11.578;2023-06-22T11:09:45;1999.90;;;999.90;;
982;SDS011;480;48.124;11.578;2023-06-22T11:12:12;1999.90;;;999.90;;
982;SDS011;480;48.124;11.578;2023-06-22T11:14:39;1999.90;;;999.90;;
982;SDS011;480;48.124;11.578;2023-06-22T11:17:06;1999.90;;;999.90;;
982;SDS011;480;48.124;11.578;2023-06-22T11:19:33;1999.90;;;999.90;;
982;SDS011;480;48.124;11.578;2023-06-22T11:22:00;1999.90;;;999.90;;
982;SDS011;480;48.124;11.578;2023-06-22T11:24:27;1999.90;;;999.90;;
982;SDS011;480;48.124;11.578;2023-06-22T11:26:55;1999.90;;;999.90;;
982;SDS011;480;48.124;11.578;2023-06-22T11:29:22;1999.90;;;999.90;;
982;SDS011;480;48.124;11.578;2023-06-22T11:31:49;1999.90;;;999.90;;
982;SDS011;480;48.124;11.578;2023-06-22T11:34:16;1999.90;;;999.90;;
982;SDS011;480;48.124;11.578;2023-06-22T11:36:44;1999.90;;;866.97;;
982;SDS011;480;48.124;11.578;2023-06-22T11:39:13;1999.90;;;999.90;;
982;SDS011;480;48.124;11.578;2023-06-22T11:41:42;1999.90;;;999.90;;
982;SDS011;480;48.124;11.578;2023-06-22T11:44:10;804.27;;;736.80;;
982;SDS011;480;48.124;11.578;2023-06-22T11:46:38;159.90;;;146.20;;
982;SDS011;480;48.124;11.578;2023-06-22T11:49:05;532.80;;;485.40;;
982;SDS011;480;48.124;11.578;2023-06-22T11:51:32;1999.90;;;999.90;;
982;SDS011;480;48.124;11.578;2023-06-22T11:53:59;1001.20;;;852.10;;
982;SDS011;480;48.124;11.578;2023-06-22T11:56:27;1999.90;;;999.90;;
982;SDS011;480;48.124;11.578;2023-06-22T11:58:54;1979.47;;;999.90;;
982;SDS011;480;48.124;11.578;2023-06-22T12:01:22;1999.90;;;999.90;;
982;SDS011;480;48.124;11.578;2023-06-22T12:03:49;1023.03;;;550.43;;
982;SDS011;480;48.124;11.578;2023-06-22T12:06:20;187.07;;;58.60;;
982;SDS011;480;48.124;11.578;2023-06-22T12:08:47;126.50;;;48.63;;
982;SDS011;480;48.124;11.578;2023-06-22T12:11:14;85.03;;;29.03;;
982;SDS011;480;48.124;11.578;2023-06-22T12:13:41;146.70;;;62.77;;
982;SDS011;480;48.124;11.578;2023-06-22T12:16:08;69.73;;;34.97;;
982;SDS011;480;48.124;11.578;2023-06-22T12:18:39;176.17;;;70.63;;
982;SDS011;480;48.124;11.578;2023-06-22T12:21:06;224.77;;;119.93;;
982;SDS011;480;48.124;11.578;2023-06-22T12:23:33;54.37;;;34.90;;
982;SDS011;480;48.124;11.578;2023-06-22T12:26:00;105.80;;;48.63;;
982;SDS011;480;48.124;11.578;2023-06-22T12:28:27;55.83;;;21.70;;
982;SDS011;480;48.124;11.578;2023-06-22T12:30:55;22.23;;;16.23;;
982;SDS011;480;48.124;11.578;2023-06-22T12:33:22;26.80;;;19.03;;
982;SDS011;480;48.124;11.578;2023-06-22T12:35:51;26.67;;;17.47;;
982;SDS011;480;48.124;11.578;2023-06-22T12:38:20;20.30;;;15.30;;
982;SDS011;480;48.124;11.578;2023-06-22T12:40:47;22.33;;;16.93;;
982;SDS011;480;48.124;11.578;2023-06-22T12:43:14;15.83;;;9.30;;
982;SDS011;480;48.124;11.578;2023-06-22T12:45:45;14.80;;;12.33;;
982;SDS011;480;48.124;11.578;2023-06-22T12:48:12;15.70;;;10.10;;
982;SDS011;480;48.124;11.578;2023-06-22T12:50:40;18.93;;;12.43;;
982;SDS011;480;48.124;11.578;2023-06-22T12:53:08;32.13;;;18.73;;
982;SDS011;480;48.124;11.578;2023-06-22T12:55:35;99.17;;;30.97;;
982;SDS011;480;48.124;11.578;2023-06-22T12:58:02;75.23;;;37.73;;
982;SDS011;480;48.124;11.578;2023-06-22T13:00:29;43.43;;;32.63;;
982;SDS011;480;48.124;11.578;2023-06-22T13:02:58;210.67;;;193.50;;
982;SDS011;480;48.124;11.578;2023-06-22T13:05:25;662.37;;;564.80;;
982;SDS011;480;48.124;11.578;2023-06-22T13:07:52;231.37;;;122.73;;
982;SDS011;480;48.124;11.578;2023-06-22T13:10:21;119.03;;;110.10;;
982;SDS011;480;48.124;11.578;2023-06-22T13:12:48;142.10;;;74.67;;
982;SDS011;480;48.124;11.578;2023-06-22T13:15:15;99.80;;;41.27;;
982;SDS011;480;48.124;11.578;2023-06-22T13:17:45;89.50;;;33.63;;
982;SDS011;480;48.124;11.578;2023-06-22T13:20:13;25.30;;;17.37;;
982;SDS011;480;48.124;11.578;2023-06-22T13:22:40;19.10;;;14.80;;
982;SDS011;480;48.124;11.578;2023-06-22T13:25:09;71.20;;;22.57;;
982;SDS011;480;48.124;11.578;2023-06-22T13:27:38;22.07;;;16.23;;
982;SDS011;480;48.124;11.578;2023-06-22T13:30:06;22.00;;;14.00;;
982;SDS011;480;48.124;11.578;2023-06-22T13:32:35;22.43;;;16.03;;
982;SDS011;480;48.124;11.578;2023-06-22T13:35:02;36.00;;;16.33;;
982;SDS011;480;48.124;11.578;2023-06-22T13:37:33;19.73;;;13.27;;
982;SDS011;480;48.124;11.578;2023-06-22T13:40:03;8.30;;;6.97;;
982;SDS011;480;48.124;11.578;2023-06-22T13:42:31;9.90;;;6.60;;
982;SDS011;480;48.124;11.578;2023-06-22T13:45:00;10.23;;;8.07;;
982;SDS011;480;48.124;11.578;2023-06-22T13:47:27;11.90;;;7.77;;
982;SDS011;480;48.124;11.578;2023-06-22T13:49:55;7.13;;;6.43;;
982;SDS011;480;48.124;11.578;2023-06-22T13:52:22;10.77;;;9.40;;
982;SDS011;480;48.124;11.578;2023-06-22T13:54:52;20.63;;;10.90;;
982;SDS011;480;48.124;11.578;2023-06-22T13:57:19;19.13;;;13.77;;
982;SDS011;480;48.124;11.578;2023-06-22T13:59:47;8.63;;;7.00;;
982;SDS011;480;48.124;11.578;2023-06-22T14:02:15;15.20;;;9.80;;
982;SDS011;480;48.124;11.578;2023-06-22T14:04:43;9.03;;;7.17;;
982;SDS011;480;48.124;11.578;2023-06-22T14:07:10;7.00;;;5.67;;
982;SDS011;480;48.124;11.578;2023-06-22T14:09:37;13.03;;;8.80;;
982;SDS011;480;48.124;11.578;2023-06-22T14:12:04;13.10;;;8.17;;
982;SDS011;480;48.124;11.578;2023-06-22T14:14:33;9.87;;;6.03;;
982;SDS011;480;48.124;11.578;2023-06-22T14:17:01;8.43;;;7.63;;
982;SDS011;480;48.124;11.578;2023-06-22T14:19:31;6.20;;;5.17;;
982;SDS011;480;48.124;11.578;2023-06-22T14:21:58;8.13;;;6.40;;
982;SDS011;480;48.124;11.578;2023-06-22T14:24:25;6.83;;;4.70;;
982;SDS011;480;48.124;11.578;2023-06-22T14:26:53;6.60;;;6.00;;
982;SDS011;480;48.124;11.578;2023-06-22T14:29:20;6.00;;;5.40;;
982;SDS011;480;48.124;11.578;2023-06-22T14:31:48;9.37;;;5.93;;
982;SDS011;480;48.124;11.578;2023-06-22T14:34:15;10.00;;;5.90;;
982;SDS011;480;48.124;11.578;2023-06-22T14:36:44;9.70;;;5.77;;
982;SDS011;480;48.124;11.578;2023-06-22T14:39:11;9.37;;;6.07;;
982;SDS011;480;48.124;11.578;2023-06-22T14:41:38;10.20;;;7.00;;
982;SDS011;480;48.124;11.578;2023-06-22T14:44:05;10.47;;;5.80;;
982;SDS011;480;48.124;11.578;2023-06-22T14:46:32;10.80;;;6.43;;
982;SDS011;480;48.124;11.578;2023-06-22T14:48:59;6.13;;;4.93;;
982;SDS011;480;48.124;11.578;2023-06-22T14:51:26;10.03;;;5.90;;
982;SDS011;480;48.124;11.578;2023-06-22T14:53:55;7.97;;;5.57;;
982;SDS011;480;48.124;11.578;2023-06-22T14:56:22;9.20;;;5.50;;
982;SDS011;480;48.124;11.578;2023-06-22T14:58:49;8.73;;;6.20;;
982;SDS011;480;48.124;11.578;2023-06-22T15:01:16;6.67;;;5.60;;
982;SDS011;480;48.124;11.578;2023-06-22T15:03:43;6.07;;;5.07;;
982;SDS011;480;48.124;11.578;2023-06-22T15:06:10;7.13;;;6.37;;
982;SDS011;480;48.124;11.578;2023-06-22T15:08:38;13.30;;;6.20;;
982;SDS011;480;48.124;11.578;2023-06-22T15:11:07;6.93;;;5.37;;
982;SDS011;480;48.124;11.578;2023-06-22T15:13:35;7.30;;;5.60;;
982;SDS011;480;48.124;11.578;2023-06-22T15:16:05;5.90;;;5.17;;
982;SDS011;480;48.124;11.578;2023-06-22T15:18:32;7.87;;;5.10;;
982;SDS011;480;48.124;11.578;2023-06-22T15:21:00;9.17;;;6.03;;
982;SDS011;480;48.124;11.578;2023-06-22T15:23:27;10.60;;;5.90;;
982;SDS011;480;48.124;11.578;2023-06-22T15:25:55;8.77;;;5.10;;